Pagrindinis puslapis
METAR-TAF:

METAR-TAF

Oro uostai :

Phrė, Tailandas

platuma: 18-10N, ilguma: 100-10E, Aukštis: 161 m

Dabartinis oras

Ataskaita buvo paskelbta 4 valandos ir 46 minutes, ne 11:00 UTC
Ramus vėjas
Temperatūra 27°C
Drėgmė 74%
Slėgis 1011 hPa
Matomumas: 9000 m
Mažai debesys ne aukštis 2200 ft

METAR: VTCP 191100Z 00000KT 9000 FEW022 27/22 Q1011 NOSIG

Laikas: 22:46 (15:46 UTC)

Prognozė

Ataskaita buvo paskelbta 4 valandos ir 46 minutes, ne 11:00 UTC
Prognozė galioja nuo 19 metu 12 UTC su 20 metu 12 UTC
Vėjas 5 kt iš Pietvakarių
Matomumas 10 km arba daugiau
Mažai debesys ne aukštis 2500 ft
Tapsmas
nuo 19 metu 21 UTC su 19 metu 23 UTC
Matomumas: 4000 m
Mažai debesys ne aukštis 1200 ft
rūkana
Tapsmas
nuo 20 metu 01 UTC su 20 metu 03 UTC
Matomumas 10 km arba daugiau
Mažai debesys ne aukštis 2500 ft

TAF: VTCP 191100Z 1912/2012 23005KT 9999 FEW025 BECMG 1921/1923 4000 BR FEW012 BECMG 2001/2003 9999 NSW FEW025

Orai ataskaitas ir orų prognozės (METAR, TAF).

turimą stotys yra geltonos ir raudonos taškus žemėlapyje.

Perkelti pele per norėdami pamatyti stoties vardą.

Tada spustelėkite, norėdami matyti oro stebėjimo ir prognozės.

Norėdami pakeisti žemėlapį: spustelėkite ant žalios mygtukų su juodo kryžiaus žemyn,; žalią mygtuką su brūkšneliu, jei norite nutolinti; arba žalių rodyklių gretimoms žemėlapius.


METAR-TAF: